Terminal Aerodrome Forecast
Issued by NWS

Home | Current Version | Previous Version | Text Only | Print | Product List | Glossary On
Versions: 1 2 3 4 5 6 7 8 9 10 11 12 13 14 15
681
FTUS42 KTBW 270524
TAFLAL
TAF
KLAL 270524Z 2706/2806 VRB03KT P6SM BKN070 BKN200
     FM271800 26006KT P6SM BKN040
     FM272100 27007KT P6SM VCTS BKN040CB
     FM280000 25005KT P6SM BKN035 BKN110
     FM280100 26004KT P6SM FEW060 SCT110
      AMD NOT SKED TIL 271100=

USA.gov is the U.S. government's official web portal to all federal, state and local government web resources and services.